createdAt,value
2023-04-25T00:00:51.564Z,194.69
2023-04-25T00:01:51.622Z,195.05
2023-04-25T00:02:51.813Z,196.21
2023-04-25T00:03:52.223Z,195.08
2023-04-25T00:04:51.846Z,195.29
2023-04-25T00:05:51.802Z,194.87
2023-04-25T00:06:51.829Z,195.06
2023-04-25T00:07:51.898Z,196.26
2023-04-25T00:08:51.915Z,195.16
2023-04-25T00:09:51.980Z,194.30
2023-04-25T00:10:52.055Z,195.60
2023-04-25T00:11:52.075Z,195.03
2023-04-25T00:12:52.144Z,195.44
2023-04-25T00:13:52.214Z,196.30
2023-04-25T00:14:52.281Z,195.25
2023-04-25T00:15:52.427Z,195.24
2023-04-25T00:16:52.368Z,194.56
2023-04-25T00:17:52.461Z,193.99
2023-04-25T00:18:52.484Z,194.88
2023-04-25T00:19:52.473Z,194.81
2023-04-25T00:20:52.551Z,194.66
2023-04-25T00:21:52.550Z,194.01
2023-04-25T00:22:52.638Z,195.33
2023-04-25T00:23:52.834Z,195.02
2023-04-25T00:24:52.662Z,194.94
2023-04-25T00:25:52.689Z,194.52
2023-04-25T00:26:52.760Z,194.77
2023-04-25T00:27:52.769Z,194.87
2023-04-25T00:28:52.838Z,194.81
2023-04-25T00:29:52.864Z,195.25
2023-04-25T00:30:52.941Z,194.85
2023-04-25T00:31:52.999Z,194.77
2023-04-25T00:32:53.062Z,195.09
2023-04-25T00:33:53.290Z,194.89
2023-04-25T00:34:53.107Z,194.91
2023-04-25T00:35:53.120Z,195.05
2023-04-25T00:36:53.192Z,194.24
2023-04-25T00:37:53.225Z,194.59
2023-04-25T00:38:53.251Z,193.94
2023-04-25T00:39:55.248Z,194.79
2023-04-25T00:40:53.372Z,194.46
2023-04-25T00:41:53.435Z,194.78
2023-04-25T00:42:53.476Z,195.87
2023-04-25T00:43:53.702Z,194.62
2023-04-25T00:44:53.609Z,195.11
2023-04-25T00:45:53.629Z,194.86
2023-04-25T00:46:53.751Z,194.04
2023-04-25T00:47:53.810Z,194.25
2023-04-25T00:48:53.775Z,194.70
2023-04-25T00:49:53.841Z,194.91
2023-04-25T00:50:53.933Z,193.88
2023-04-25T00:51:53.938Z,194.92
2023-04-25T00:52:54.007Z,194.83
2023-04-25T00:53:54.123Z,194.48
2023-04-25T00:54:54.100Z,195.19
2023-04-25T00:55:54.135Z,193.95
2023-04-25T00:56:54.164Z,194.58
2023-04-25T00:57:54.197Z,195.42
2023-04-25T00:58:54.251Z,194.72
2023-04-25T00:59:54.306Z,194.59
2023-04-25T01:00:54.424Z,194.66
2023-04-25T01:01:54.409Z,194.67
2023-04-25T01:02:54.585Z,195.33
2023-04-25T01:03:54.860Z,193.29
2023-04-25T01:04:54.551Z,193.86
2023-04-25T01:05:54.652Z,194.04
2023-04-25T01:06:54.634Z,194.25
2023-04-25T01:07:54.708Z,193.76
2023-04-25T01:08:54.765Z,194.13
2023-04-25T01:09:54.830Z,193.71
2023-04-25T01:10:54.862Z,193.84
2023-04-25T01:11:54.898Z,193.69
2023-04-25T01:12:54.949Z,194.42
2023-04-25T01:13:55.009Z,195.20
2023-04-25T01:14:55.048Z,194.21
2023-04-25T01:15:55.062Z,193.72
2023-04-25T01:16:55.150Z,194.83
2023-04-25T01:17:55.206Z,194.91
2023-04-25T01:18:55.182Z,194.34
2023-04-25T01:19:55.248Z,193.79
2023-04-25T01:20:55.239Z,194.81
2023-04-25T01:21:55.257Z,195.41
2023-04-25T01:22:55.330Z,193.74
2023-04-25T01:23:55.335Z,193.55
2023-04-25T01:24:55.384Z,194.77
2023-04-25T01:25:55.430Z,194.47
2023-04-25T01:26:55.500Z,193.52
2023-04-25T01:27:55.547Z,193.97
2023-04-25T01:28:55.611Z,193.81
2023-04-25T01:29:55.618Z,193.93
2023-04-25T01:30:55.816Z,194.83
2023-04-25T01:31:55.723Z,193.39
2023-04-25T01:32:55.759Z,194.82
2023-04-25T01:33:55.757Z,194.04
2023-04-25T01:34:55.800Z,194.08
2023-04-25T01:35:55.830Z,193.66
2023-04-25T01:36:55.854Z,193.48
2023-04-25T01:37:55.930Z,194.71
2023-04-25T01:38:55.945Z,194.11
2023-04-25T01:39:56.271Z,194.24
2023-04-25T01:40:55.987Z,194.82
2023-04-25T01:41:57.417Z,193.82
2023-04-25T01:42:56.056Z,193.41
2023-04-25T01:43:56.125Z,194.75
2023-04-25T01:44:56.149Z,194.40
2023-04-25T01:45:56.256Z,193.04
2023-04-25T01:46:56.235Z,194.08
2023-04-25T01:47:56.324Z,193.94
2023-04-25T01:48:56.342Z,194.05
2023-04-25T01:49:56.391Z,193.41
2023-04-25T01:50:56.458Z,194.57
2023-04-25T01:51:56.495Z,194.45
2023-04-25T01:52:56.554Z,194.06
2023-04-25T01:53:56.592Z,193.78
2023-04-25T01:54:56.654Z,192.49
2023-04-25T01:55:56.728Z,193.45
2023-04-25T01:56:56.735Z,194.75
2023-04-25T01:57:56.793Z,193.47
2023-04-25T01:58:56.816Z,193.47
2023-04-25T01:59:56.904Z,194.11
2023-04-25T02:00:56.952Z,193.92
2023-04-25T02:01:57.062Z,193.05
2023-04-25T02:02:57.095Z,193.80
2023-04-25T02:03:57.496Z,193.63
2023-04-25T02:04:57.193Z,194.71
2023-04-25T02:05:57.213Z,193.95
2023-04-25T02:06:57.293Z,194.33
2023-04-25T02:07:57.293Z,194.28
2023-04-25T02:08:57.291Z,192.76
2023-04-25T02:09:57.330Z,193.00
2023-04-25T02:10:57.347Z,193.31
2023-04-25T02:11:57.382Z,192.58
2023-04-25T02:12:57.356Z,193.61
2023-04-25T02:13:57.405Z,193.74
2023-04-25T02:14:57.430Z,193.13
2023-04-25T02:15:57.572Z,192.83
2023-04-25T02:16:57.586Z,193.30
2023-04-25T02:17:57.501Z,192.88
2023-04-25T02:18:57.510Z,193.19
2023-04-25T02:19:57.560Z,193.25
2023-04-25T02:20:57.555Z,193.32
2023-04-25T02:21:57.572Z,193.43
2023-04-25T02:22:57.585Z,193.20
2023-04-25T02:23:57.602Z,193.69
2023-04-25T02:24:57.628Z,193.12
2023-04-25T02:25:57.649Z,193.32
2023-04-25T02:26:57.649Z,192.96
2023-04-25T02:27:57.671Z,193.22
2023-04-25T02:28:57.690Z,192.71
2023-04-25T02:29:57.725Z,191.97
2023-04-25T02:30:57.789Z,192.53
2023-04-25T02:31:57.813Z,192.63
2023-04-25T02:32:57.853Z,192.37
2023-04-25T02:33:57.806Z,192.39
2023-04-25T02:34:57.841Z,193.60
2023-04-25T02:35:57.840Z,193.99
2023-04-25T02:36:57.843Z,192.69
2023-04-25T02:37:57.848Z,193.00
2023-04-25T02:38:57.873Z,193.17
2023-04-25T02:39:57.892Z,192.41
2023-04-25T02:40:57.849Z,193.72
2023-04-25T02:41:57.859Z,193.27
2023-04-25T02:42:57.863Z,192.87
2023-04-25T02:43:57.851Z,192.74
2023-04-25T02:44:57.882Z,192.23
2023-04-25T02:45:57.844Z,192.18
2023-04-25T02:46:57.859Z,192.98
2023-04-25T02:47:57.941Z,191.49
2023-04-25T02:48:57.858Z,192.63
2023-04-25T02:49:57.866Z,193.19
2023-04-25T02:50:57.889Z,193.07
2023-04-25T02:51:57.856Z,193.05
2023-04-25T02:52:57.871Z,193.19
2023-04-25T02:53:57.890Z,191.76
2023-04-25T02:54:57.907Z,192.41
2023-04-25T02:55:57.925Z,193.43
2023-04-25T02:56:57.933Z,191.99
2023-04-25T02:57:57.923Z,193.00
2023-04-25T02:58:57.935Z,192.41
2023-04-25T02:59:57.941Z,193.07
2023-04-25T03:00:58.010Z,192.46
2023-04-25T03:01:57.939Z,191.68
2023-04-25T03:02:58.084Z,193.15
2023-04-25T03:03:57.965Z,191.65
2023-04-25T03:04:57.977Z,192.37
2023-04-25T03:05:57.956Z,193.08
2023-04-25T03:06:57.996Z,193.40
2023-04-25T03:07:57.987Z,192.13
2023-04-25T03:08:58.016Z,192.35
2023-04-25T03:09:57.971Z,191.39
2023-04-25T03:10:57.960Z,190.76
2023-04-25T03:11:58.004Z,192.50
2023-04-25T03:12:57.971Z,191.78
2023-04-25T03:13:57.953Z,191.86
2023-04-25T03:14:57.978Z,191.71
2023-04-25T03:15:57.953Z,192.90
2023-04-25T03:16:58.023Z,191.74
2023-04-25T03:17:57.995Z,192.67
2023-04-25T03:18:57.959Z,191.70
2023-04-25T03:19:57.966Z,192.12
2023-04-25T03:20:57.973Z,192.37
2023-04-25T03:21:57.946Z,191.39
2023-04-25T03:22:57.978Z,190.99
2023-04-25T03:23:57.947Z,191.50
2023-04-25T03:24:57.954Z,189.86
2023-04-25T03:25:57.959Z,191.07
2023-04-25T03:26:57.940Z,191.36
2023-04-25T03:27:57.953Z,191.84
2023-04-25T03:28:57.954Z,192.27
2023-04-25T03:29:57.935Z,190.73
2023-04-25T03:30:57.929Z,191.56
2023-04-25T03:31:57.974Z,191.79
2023-04-25T03:32:57.947Z,192.09
2023-04-25T03:33:57.916Z,192.14
2023-04-25T03:34:57.904Z,192.91
2023-04-25T03:35:57.870Z,191.76
2023-04-25T03:36:57.913Z,191.83
2023-04-25T03:37:57.898Z,191.80
2023-04-25T03:38:57.931Z,190.97
2023-04-25T03:39:57.878Z,192.18
2023-04-25T03:40:57.911Z,190.35
2023-04-25T03:41:57.871Z,191.72
2023-04-25T03:42:57.886Z,190.88
2023-04-25T03:43:57.871Z,190.94
2023-04-25T03:44:57.877Z,191.37
2023-04-25T03:45:57.928Z,191.08
2023-04-25T03:46:57.862Z,192.22
2023-04-25T03:47:57.918Z,190.89
2023-04-25T03:48:57.868Z,191.84
2023-04-25T03:49:57.861Z,192.26
2023-04-25T03:50:57.861Z,191.79
2023-04-25T03:51:57.895Z,190.17
2023-04-25T03:52:57.862Z,190.85
2023-04-25T03:53:57.888Z,191.67
2023-04-25T03:54:57.863Z,191.11
2023-04-25T03:55:57.869Z,190.91
2023-04-25T03:56:57.898Z,191.78
2023-04-25T03:57:57.870Z,190.36
2023-04-25T03:58:57.872Z,191.74
2023-04-25T03:59:57.892Z,190.46
2023-04-25T04:00:57.861Z,191.48
2023-04-25T04:01:57.859Z,190.77
2023-04-25T04:02:57.918Z,192.51
2023-04-25T04:03:58.197Z,189.92
2023-04-25T04:04:58.027Z,190.42
2023-04-25T04:05:57.940Z,191.30
2023-04-25T04:06:57.834Z,189.89
2023-04-25T04:07:57.832Z,191.24
2023-04-25T04:08:57.835Z,190.45
2023-04-25T04:09:57.829Z,190.23
2023-04-25T04:10:57.815Z,190.34
2023-04-25T04:11:57.816Z,190.38
2023-04-25T04:12:57.837Z,190.36
2023-04-25T04:13:57.800Z,190.86
2023-04-25T04:14:57.819Z,190.34
2023-04-25T04:15:57.839Z,191.11
2023-04-25T04:16:57.792Z,189.84
2023-04-25T04:17:57.830Z,189.87
2023-04-25T04:18:57.800Z,190.63
2023-04-25T04:19:57.802Z,189.85
2023-04-25T04:20:57.816Z,190.52
2023-04-25T04:21:57.807Z,190.86
2023-04-25T04:22:57.820Z,189.65
2023-04-25T04:23:57.825Z,190.07
2023-04-25T04:24:57.868Z,190.44
2023-04-25T04:25:57.815Z,191.01
2023-04-25T04:26:57.826Z,190.30
2023-04-25T04:27:57.846Z,191.66
2023-04-25T04:28:57.821Z,189.94
2023-04-25T04:29:57.860Z,189.72
2023-04-25T04:30:57.870Z,190.31
2023-04-25T04:31:57.872Z,190.23
2023-04-25T04:32:57.869Z,189.44
2023-04-25T04:33:57.821Z,190.05
2023-04-25T04:34:58.308Z,191.39
2023-04-25T04:35:57.869Z,190.21
2023-04-25T04:36:57.868Z,190.45
2023-04-25T04:37:57.835Z,190.24
2023-04-25T04:38:57.854Z,190.89
2023-04-25T04:39:57.826Z,190.56
2023-04-25T04:40:57.855Z,190.47
2023-04-25T04:41:57.830Z,191.38
2023-04-25T04:42:57.849Z,190.21
2023-04-25T04:43:57.864Z,189.83
2023-04-25T04:44:57.855Z,190.47
2023-04-25T04:45:57.836Z,189.93
2023-04-25T04:46:57.896Z,190.87
2023-04-25T04:47:57.898Z,189.66
2023-04-25T04:48:57.838Z,189.72
2023-04-25T04:49:57.846Z,189.97
2023-04-25T04:50:57.881Z,188.63
2023-04-25T04:51:59.665Z,189.51
2023-04-25T04:52:57.814Z,190.69
2023-04-25T04:53:57.817Z,189.63
2023-04-25T04:54:57.845Z,189.05
2023-04-25T04:55:57.826Z,189.52
2023-04-25T04:56:57.864Z,190.23
2023-04-25T04:57:57.842Z,188.65
2023-04-25T04:58:57.839Z,187.83
2023-04-25T04:59:57.828Z,188.39
2023-04-25T05:00:57.852Z,188.40
2023-04-25T05:01:57.838Z,188.21
2023-04-25T05:02:57.886Z,187.17
2023-04-25T05:03:58.260Z,186.77
2023-04-25T05:04:58.058Z,187.90
2023-04-25T05:05:57.805Z,187.27
2023-04-25T05:06:57.809Z,186.73
2023-04-25T05:07:57.798Z,186.59
2023-04-25T05:08:57.799Z,187.87
2023-04-25T05:09:57.807Z,187.40
2023-04-25T05:10:57.818Z,186.31
2023-04-25T05:11:57.802Z,187.49
2023-04-25T05:12:57.813Z,187.55
2023-04-25T05:13:57.789Z,188.12
2023-04-25T05:14:57.790Z,186.20
2023-04-25T05:15:57.789Z,186.30
2023-04-25T05:16:57.794Z,186.65
2023-04-25T05:17:57.868Z,187.82
2023-04-25T05:18:57.785Z,185.93
2023-04-25T05:19:57.800Z,185.54
2023-04-25T05:20:57.811Z,186.95
2023-04-25T05:21:57.789Z,185.65
2023-04-25T05:22:57.805Z,187.52
2023-04-25T05:23:57.766Z,187.18
2023-04-25T05:24:57.791Z,185.78
2023-04-25T05:25:57.811Z,184.95
2023-04-25T05:26:57.798Z,186.49
2023-04-25T05:27:57.793Z,186.84
2023-04-25T05:28:57.772Z,187.15
2023-04-25T05:29:57.757Z,187.07
2023-04-25T05:30:57.803Z,188.43
2023-04-25T05:31:57.930Z,187.74
2023-04-25T05:32:58.349Z,188.49
2023-04-25T05:33:57.918Z,189.39
2023-04-25T05:34:58.018Z,190.21
2023-04-25T05:35:58.031Z,191.74
2023-04-25T05:36:58.099Z,190.97
2023-04-25T05:37:58.386Z,199.28
2023-04-25T05:38:58.266Z,198.07
2023-04-25T05:39:58.267Z,201.01
2023-04-25T05:40:58.295Z,198.39
2023-04-25T05:41:58.325Z,205.87
2023-04-25T05:42:58.944Z,209.08
2023-04-25T05:43:59.621Z,213.34
2023-04-25T05:44:58.463Z,219.68
2023-04-25T05:45:58.508Z,220.87
2023-04-25T05:46:58.444Z,224.28
2023-04-25T05:47:58.910Z,231.11
2023-04-25T05:48:58.468Z,233.97
2023-04-25T05:49:58.478Z,227.71
2023-04-25T05:50:58.885Z,232.39
2023-04-25T05:51:58.487Z,230.52
2023-04-25T05:52:58.502Z,233.02
2023-04-25T05:53:58.506Z,232.20
2023-04-25T05:54:58.520Z,234.92
2023-04-25T05:55:58.565Z,237.17
2023-04-25T05:56:58.659Z,238.13
2023-04-25T05:57:58.595Z,241.46
2023-04-25T05:58:58.592Z,235.74
2023-04-25T05:59:58.564Z,228.92
2023-04-25T06:00:58.563Z,227.59
2023-04-25T06:01:58.607Z,233.78
2023-04-25T06:02:58.679Z,234.03
2023-04-25T06:03:58.975Z,233.05
2023-04-25T06:04:58.816Z,226.32
2023-04-25T06:05:58.643Z,227.00
2023-04-25T06:06:58.590Z,228.32
2023-04-25T06:07:58.575Z,223.82
2023-04-25T06:08:58.576Z,221.09
2023-04-25T06:09:58.622Z,227.93
2023-04-25T06:10:58.642Z,228.85
2023-04-25T06:11:58.598Z,229.34
2023-04-25T06:12:58.585Z,226.74
2023-04-25T06:13:58.587Z,230.80
2023-04-25T06:14:58.618Z,228.26
2023-04-25T06:15:58.627Z,224.49
2023-04-25T06:16:58.592Z,227.23
2023-04-25T06:17:58.626Z,230.40
2023-04-25T06:18:58.634Z,229.63
2023-04-25T06:19:58.601Z,229.80
2023-04-25T06:20:58.624Z,228.79
2023-04-25T06:21:58.694Z,231.83
2023-04-25T06:22:58.747Z,232.31
2023-04-25T06:23:58.798Z,235.33
2023-04-25T06:24:58.878Z,234.24
2023-04-25T06:25:58.945Z,235.91
2023-04-25T06:26:58.983Z,239.30
2023-04-25T06:27:59.051Z,241.12
2023-04-25T06:28:59.111Z,243.50
2023-04-25T06:29:59.197Z,242.68
2023-04-25T06:30:59.237Z,244.48
2023-04-25T06:31:59.289Z,241.87
2023-04-25T06:32:59.425Z,242.36
2023-04-25T06:33:59.399Z,242.28
2023-04-25T06:34:59.505Z,246.59
2023-04-25T06:35:59.445Z,248.39
2023-04-25T06:36:59.500Z,249.99
2023-04-25T06:37:59.870Z,248.55
2023-04-25T06:38:59.564Z,247.93
2023-04-25T06:39:59.583Z,249.46
2023-04-25T06:40:59.655Z,248.50
2023-04-25T06:41:59.632Z,249.81
2023-04-25T06:42:59.909Z,249.64
2023-04-25T06:43:59.671Z,249.78
2023-04-25T06:44:59.674Z,249.31
2023-04-25T06:45:59.677Z,250.00
2023-04-25T06:46:59.708Z,250.00
2023-04-25T06:47:59.749Z,248.06
2023-04-25T06:48:59.730Z,250.00
2023-04-25T06:49:59.729Z,250.36
2023-04-25T06:50:59.756Z,250.00
2023-04-25T06:51:59.763Z,248.42
2023-04-25T06:52:59.757Z,248.06
2023-04-25T06:53:59.826Z,248.80
2023-04-25T06:54:59.797Z,247.76
2023-04-25T06:55:59.874Z,248.45
2023-04-25T06:56:59.855Z,250.00
2023-04-25T06:57:59.892Z,249.65
2023-04-25T06:58:59.829Z,248.99
2023-04-25T07:00:02.085Z,250.00
2023-04-25T07:01:00.152Z,249.95
2023-04-25T07:02:00.046Z,250.00
2023-04-25T07:03:00.168Z,248.18
2023-04-25T07:04:00.381Z,249.82
2023-04-25T07:05:00.056Z,250.00
2023-04-25T07:06:00.090Z,249.16
2023-04-25T07:07:00.091Z,249.86
2023-04-25T07:08:00.054Z,249.14
2023-04-25T07:09:00.059Z,249.39
2023-04-25T07:10:00.056Z,249.65
2023-04-25T07:11:00.071Z,249.27
2023-04-25T07:12:00.050Z,249.31
2023-04-25T07:13:00.376Z,249.20
2023-04-25T07:14:00.066Z,250.00
2023-04-25T07:15:00.043Z,249.74
2023-04-25T07:16:00.415Z,249.64
2023-04-25T07:17:00.177Z,249.16
2023-04-25T07:18:00.479Z,249.34
2023-04-25T07:19:00.123Z,249.87
2023-04-25T07:20:00.193Z,249.11
2023-04-25T07:21:00.144Z,249.47
2023-04-25T07:22:00.205Z,249.77
2023-04-25T07:23:00.289Z,250.00
2023-04-25T07:24:00.299Z,250.00
2023-04-25T07:25:00.374Z,250.00
2023-04-25T07:26:00.426Z,249.00
2023-04-25T07:27:00.464Z,249.49
2023-04-25T07:28:00.573Z,250.00
2023-04-25T07:29:00.613Z,250.18
2023-04-25T07:30:00.697Z,250.25
2023-04-25T07:31:00.744Z,249.40
2023-04-25T07:32:00.877Z,248.40
2023-04-25T07:33:01.476Z,249.84
2023-04-25T07:34:02.234Z,243.83
2023-04-25T07:35:01.082Z,236.56
2023-04-25T07:36:01.403Z,234.53
2023-04-25T07:37:01.087Z,234.23
2023-04-25T07:38:01.948Z,226.46
2023-04-25T07:39:01.108Z,194.40
2023-04-25T07:40:01.118Z,188.50
2023-04-25T07:41:01.401Z,186.31
2023-04-25T07:42:01.147Z,169.71
2023-04-25T07:43:01.341Z,156.22
2023-04-25T07:44:01.157Z,146.94
2023-04-25T07:45:01.172Z,139.64
2023-04-25T07:46:01.268Z,139.29
2023-04-25T07:47:03.161Z,129.43
2023-04-25T07:48:01.261Z,125.57
2023-04-25T07:49:01.930Z,118.81
2023-04-25T07:50:01.211Z,115.47
2023-04-25T07:51:01.197Z,108.14
2023-04-25T07:52:01.210Z,109.57
2023-04-25T07:53:01.502Z,105.94
2023-04-25T07:54:01.423Z,108.42
2023-04-25T07:55:01.189Z,109.91
2023-04-25T07:56:01.206Z,107.29
2023-04-25T07:57:01.168Z,103.09
2023-04-25T07:58:01.255Z,92.33
2023-04-25T07:59:01.387Z,85.37
2023-04-25T08:00:01.187Z,88.39
2023-04-25T08:01:01.214Z,86.06
2023-04-25T08:02:01.208Z,85.16
2023-04-25T08:03:01.253Z,81.68
2023-04-25T08:04:01.414Z,81.64
2023-04-25T08:05:01.621Z,84.17
2023-04-25T08:06:03.433Z,79.68
2023-04-25T08:07:01.109Z,79.79
2023-04-25T08:08:01.081Z,79.42
2023-04-25T08:09:01.425Z,77.34
2023-04-25T08:10:01.114Z,76.23
2023-04-25T08:11:01.423Z,65.34
2023-04-25T08:12:01.134Z,60.80
2023-04-25T08:13:01.063Z,58.81
2023-04-25T08:14:01.078Z,59.02
2023-04-25T08:15:01.095Z,58.73
2023-04-25T08:16:01.448Z,58.05
2023-04-25T08:17:01.181Z,56.28
2023-04-25T08:18:01.074Z,53.66
2023-04-25T08:19:01.104Z,51.02
2023-04-25T08:20:01.026Z,50.62
2023-04-25T08:21:01.030Z,47.89
2023-04-25T08:22:00.987Z,48.07
2023-04-25T08:23:00.963Z,44.24
2023-04-25T08:24:00.985Z,44.19
2023-04-25T08:25:00.959Z,53.54
2023-04-25T08:26:01.041Z,78.00
2023-04-25T08:27:01.907Z,86.61
2023-04-25T08:28:01.103Z,74.52
2023-04-25T08:29:01.413Z,66.01
2023-04-25T08:30:00.920Z,55.93
2023-04-25T08:31:01.053Z,50.46
2023-04-25T08:32:00.977Z,44.94
2023-04-25T08:33:00.928Z,37.58
2023-04-25T08:34:00.969Z,37.54
2023-04-25T08:35:01.001Z,34.86
2023-04-25T08:36:00.974Z,32.34
2023-04-25T08:37:01.022Z,30.18
2023-04-25T08:38:00.918Z,63.26
2023-04-25T08:39:01.079Z,85.11
2023-04-25T08:40:00.861Z,87.29
2023-04-25T08:41:00.869Z,90.93
2023-04-25T08:42:00.929Z,107.76
2023-04-25T08:43:00.857Z,118.04
2023-04-25T08:44:00.923Z,126.45
2023-04-25T08:45:00.872Z,136.25
2023-04-25T08:46:00.813Z,139.71
2023-04-25T08:47:00.853Z,147.26
2023-04-25T08:48:00.856Z,150.02
2023-04-25T08:49:00.794Z,153.08
2023-04-25T08:50:00.815Z,154.22
2023-04-25T08:51:00.947Z,153.15
2023-04-25T08:52:00.773Z,145.35
2023-04-25T08:53:00.954Z,149.30
2023-04-25T08:54:08.926Z,149.42
2023-04-25T08:55:01.843Z,144.15
2023-04-25T08:56:00.769Z,134.95
2023-04-25T08:57:00.768Z,125.29
2023-04-25T08:58:00.797Z,120.54
2023-04-25T08:59:02.458Z,107.00
2023-04-25T09:00:00.850Z,94.02
2023-04-25T09:01:00.770Z,90.42
2023-04-25T09:02:00.737Z,94.95
2023-04-25T09:03:00.924Z,106.91
2023-04-25T09:04:00.802Z,115.53
2023-04-25T09:05:00.695Z,127.18
2023-04-25T09:06:00.726Z,100.56
2023-04-25T09:07:00.717Z,77.23
2023-04-25T09:08:00.750Z,77.48
2023-04-25T09:09:00.726Z,56.35
2023-04-25T09:10:00.728Z,62.81
2023-04-25T09:11:00.716Z,81.35
2023-04-25T09:12:00.858Z,93.84
2023-04-25T09:13:00.726Z,99.50
2023-04-25T09:14:00.734Z,110.80
2023-04-25T09:15:00.734Z,113.06
2023-04-25T09:16:00.734Z,113.42
2023-04-25T09:17:01.031Z,117.52
2023-04-25T09:18:00.761Z,122.42
2023-04-25T09:19:00.772Z,128.71
2023-04-25T09:20:00.736Z,134.78
2023-04-25T09:21:02.241Z,136.65
2023-04-25T09:22:01.714Z,136.78
2023-04-25T09:23:00.726Z,137.38
2023-04-25T09:24:00.707Z,137.67
2023-04-25T09:25:00.717Z,139.31
2023-04-25T09:26:00.676Z,139.86
2023-04-25T09:27:00.708Z,138.11
2023-04-25T09:28:00.740Z,134.89
2023-04-25T09:29:00.669Z,134.28
2023-04-25T09:30:00.747Z,134.76
2023-04-25T09:31:00.838Z,134.14
2023-04-25T09:32:00.972Z,132.81
2023-04-25T09:33:00.985Z,132.94
2023-04-25T09:34:01.325Z,109.16
2023-04-25T09:35:01.006Z,63.01
2023-04-25T09:36:00.978Z,38.30
2023-04-25T09:37:01.485Z,23.80
2023-04-25T09:38:00.989Z,21.63
2023-04-25T09:39:01.036Z,23.45
2023-04-25T09:40:01.009Z,22.62
2023-04-25T09:41:02.155Z,27.63
2023-04-25T09:42:01.146Z,24.80
2023-04-25T09:43:01.126Z,24.16
2023-04-25T09:44:01.531Z,24.62
2023-04-25T09:45:01.215Z,24.45
2023-04-25T09:46:01.309Z,25.00
2023-04-25T09:47:01.506Z,27.20
2023-04-25T09:48:01.353Z,22.76
2023-04-25T09:49:01.473Z,27.31
2023-04-25T09:50:01.535Z,25.47
2023-04-25T09:51:02.475Z,25.54
2023-04-25T09:52:02.086Z,25.35
2023-04-25T09:53:01.593Z,23.67
2023-04-25T09:54:01.658Z,27.25
2023-04-25T09:55:01.761Z,26.20
2023-04-25T09:56:01.821Z,28.83
2023-04-25T09:57:01.929Z,27.39
2023-04-25T09:58:02.019Z,27.66
2023-04-25T09:59:02.015Z,26.27
2023-04-25T10:00:02.130Z,26.25
2023-04-25T10:01:02.126Z,26.46
2023-04-25T10:02:02.184Z,25.83
2023-04-25T10:03:02.254Z,25.75
2023-04-25T10:04:02.697Z,30.44
2023-04-25T10:05:02.542Z,29.56
2023-04-25T10:06:03.228Z,29.83
2023-04-25T10:07:02.490Z,31.53
2023-04-25T10:08:02.184Z,32.70
2023-04-25T10:09:02.235Z,32.70
2023-04-25T10:10:02.205Z,35.75
2023-04-25T10:11:02.180Z,38.16
2023-04-25T10:12:02.518Z,35.24
2023-04-25T10:13:02.239Z,24.89
2023-04-25T10:14:02.189Z,25.50
2023-04-25T10:15:02.240Z,26.93
2023-04-25T10:16:02.386Z,27.08
2023-04-25T10:17:02.395Z,26.56
2023-04-25T10:18:02.324Z,29.26
2023-04-25T10:19:02.491Z,25.84
2023-04-25T10:20:02.449Z,25.00
2023-04-25T10:21:02.423Z,27.71
2023-04-25T10:22:02.520Z,32.09
2023-04-25T10:23:02.448Z,29.27
2023-04-25T10:24:02.510Z,22.89
2023-04-25T10:25:02.518Z,27.87
2023-04-25T10:26:02.512Z,30.40
2023-04-25T10:27:02.967Z,41.76
2023-04-25T10:28:02.552Z,67.03
2023-04-25T10:29:02.562Z,80.01
2023-04-25T10:30:02.573Z,94.15
2023-04-25T10:31:02.711Z,107.62
2023-04-25T10:32:02.636Z,114.23
2023-04-25T10:33:02.681Z,124.94
2023-04-25T10:34:02.781Z,134.01
2023-04-25T10:35:02.783Z,142.82
2023-04-25T10:36:02.812Z,148.45
2023-04-25T10:37:02.823Z,153.88
2023-04-25T10:38:02.891Z,159.49
2023-04-25T10:39:02.856Z,163.74
2023-04-25T10:40:02.871Z,169.19
2023-04-25T10:41:02.851Z,172.33
2023-04-25T10:42:02.850Z,176.96
2023-04-25T10:43:02.821Z,179.75
2023-04-25T10:44:02.822Z,182.09
2023-04-25T10:45:02.916Z,185.70
2023-04-25T10:46:02.872Z,189.09
2023-04-25T10:47:03.081Z,192.51
2023-04-25T10:48:03.043Z,198.04
2023-04-25T10:49:03.054Z,200.93
2023-04-25T10:50:03.514Z,202.96
2023-04-25T10:51:03.185Z,205.93
2023-04-25T10:52:03.209Z,209.00
2023-04-25T10:53:03.275Z,210.73
2023-04-25T10:54:03.333Z,213.22
2023-04-25T10:55:03.395Z,214.45
2023-04-25T10:56:03.407Z,217.21
2023-04-25T10:57:03.470Z,218.50
2023-04-25T10:58:03.501Z,219.80
2023-04-25T10:59:03.519Z,221.79
2023-04-25T11:00:03.565Z,222.79
2023-04-25T11:01:03.632Z,224.24
2023-04-25T11:02:03.723Z,225.83
2023-04-25T11:03:03.801Z,227.99
2023-04-25T11:04:03.870Z,229.29
2023-04-25T11:05:03.715Z,229.86
2023-04-25T11:06:03.749Z,231.72
2023-04-25T11:07:07.135Z,232.40
2023-04-25T11:09:04.733Z,232.61
2023-04-25T11:10:03.969Z,233.23
2023-04-25T11:11:03.733Z,234.47
2023-04-25T11:12:03.990Z,236.65
2023-04-25T11:13:03.719Z,240.67
2023-04-25T11:14:04.484Z,242.07
2023-04-25T11:14:38.051Z,232.50
2023-04-25T11:15:03.990Z,242.98
2023-04-25T11:16:12.533Z,244.01
2023-04-25T11:17:05.087Z,244.07
2023-04-25T11:18:04.063Z,243.90
2023-04-25T11:19:03.914Z,241.15
2023-04-25T11:20:03.935Z,242.17
2023-04-25T11:21:03.918Z,243.27
2023-04-25T11:22:04.063Z,243.52
2023-04-25T11:24:03.985Z,243.88
2023-04-25T11:25:03.996Z,243.32
2023-04-25T11:26:04.081Z,243.49
2023-04-25T11:27:04.472Z,243.31
2023-04-25T11:28:04.103Z,243.76
2023-04-25T11:29:04.121Z,244.57
2023-04-25T11:30:04.175Z,243.18
2023-04-25T11:31:04.194Z,243.86
2023-04-25T11:32:04.566Z,243.83
2023-04-25T11:33:04.393Z,244.16
2023-04-25T11:34:04.326Z,243.41
2023-04-25T11:35:04.378Z,243.61
2023-04-25T11:36:04.439Z,242.93
2023-04-25T11:37:04.509Z,243.53
2023-04-25T11:38:04.535Z,242.55
2023-04-25T11:39:04.915Z,242.49
2023-04-25T11:40:04.649Z,242.30
2023-04-25T11:41:04.740Z,242.65
2023-04-25T11:42:08.012Z,241.82
2023-04-25T11:43:05.755Z,241.85
2023-04-25T11:44:04.897Z,241.85
2023-04-25T11:45:04.810Z,241.72
2023-04-25T11:46:04.747Z,241.76
2023-04-25T11:47:04.738Z,240.16
2023-04-25T11:48:04.916Z,239.26
2023-04-25T11:49:04.722Z,238.83
2023-04-25T11:50:04.719Z,238.81
2023-04-25T11:51:04.698Z,238.72
2023-04-25T11:52:04.715Z,238.47
2023-04-25T11:53:04.739Z,238.05
2023-04-25T11:54:04.796Z,237.32
2023-04-25T11:55:04.883Z,237.34
2023-04-25T11:56:05.012Z,237.78
2023-04-25T11:57:04.932Z,236.71
2023-04-25T11:58:05.000Z,235.50
2023-04-25T11:59:05.042Z,235.52
2023-04-25T12:00:05.117Z,235.11
2023-04-25T12:01:05.152Z,235.36
2023-04-25T12:02:05.186Z,234.72
2023-04-25T12:03:05.353Z,234.17
2023-04-25T12:04:05.696Z,234.48
2023-04-25T12:05:21.651Z,235.08
2023-04-25T12:06:06.504Z,235.11
2023-04-25T12:07:05.339Z,234.84
2023-04-25T12:08:05.340Z,234.37
2023-04-25T12:09:05.404Z,233.25
2023-04-25T12:10:05.480Z,233.97
2023-04-25T12:11:05.305Z,233.08
2023-04-25T12:12:05.378Z,233.01
2023-04-25T12:13:05.272Z,232.70
2023-04-25T12:14:05.280Z,231.49
2023-04-25T12:15:05.287Z,230.89
2023-04-25T12:16:05.279Z,231.21
2023-04-25T12:17:05.370Z,230.48
2023-04-25T12:18:05.391Z,229.76
2023-04-25T12:19:05.422Z,229.51
2023-04-25T12:20:05.548Z,227.79
2023-04-25T12:21:05.514Z,227.74
2023-04-25T12:22:05.597Z,223.61
2023-04-25T12:23:06.073Z,222.58
2023-04-25T12:24:05.665Z,224.57
2023-04-25T12:25:05.681Z,230.60
2023-04-25T12:26:05.730Z,225.24
2023-04-25T12:27:05.855Z,223.95
2023-04-25T12:28:05.782Z,227.19
2023-04-25T12:29:05.786Z,225.68
2023-04-25T12:30:05.837Z,225.18
2023-04-25T12:31:05.976Z,227.37
2023-04-25T12:32:05.822Z,227.90
2023-04-25T12:33:05.989Z,226.61